sensor_id;sensor_type;location;lat;lon;timestamp;P1;durP1;ratioP1;P2;durP2;ratioP2
2035;SDS011;23642;42.658;23.350;2022-09-09T00:02:10;87.30;;;81.30;;
2035;SDS011;23642;42.658;23.350;2022-09-09T00:04:46;88.27;;;81.97;;
2035;SDS011;23642;42.658;23.350;2022-09-09T00:07:30;86.57;;;80.87;;
2035;SDS011;23642;42.658;23.350;2022-09-09T00:10:12;87.57;;;81.77;;
2035;SDS011;23642;42.658;23.350;2022-09-09T00:12:47;88.13;;;82.20;;
2035;SDS011;23642;42.658;23.350;2022-09-09T00:15:20;86.40;;;80.70;;
2035;SDS011;23642;42.658;23.350;2022-09-09T00:17:52;85.80;;;79.80;;
2035;SDS011;23642;42.658;23.350;2022-09-09T00:20:25;85.83;;;80.00;;
2035;SDS011;23642;42.658;23.350;2022-09-09T00:22:59;87.90;;;81.90;;
2035;SDS011;23642;42.658;23.350;2022-09-09T00:25:33;88.30;;;82.43;;
2035;SDS011;23642;42.658;23.350;2022-09-09T00:28:08;87.50;;;81.63;;
2035;SDS011;23642;42.658;23.350;2022-09-09T00:30:43;86.33;;;80.57;;
2035;SDS011;23642;42.658;23.350;2022-09-09T00:33:15;86.03;;;80.23;;
2035;SDS011;23642;42.658;23.350;2022-09-09T00:35:46;83.93;;;78.23;;
2035;SDS011;23642;42.658;23.350;2022-09-09T00:38:17;85.40;;;79.13;;
2035;SDS011;23642;42.658;23.350;2022-09-09T00:40:49;88.50;;;82.40;;
2035;SDS011;23642;42.658;23.350;2022-09-09T00:43:28;85.10;;;79.47;;
2035;SDS011;23642;42.658;23.350;2022-09-09T00:46:05;84.97;;;78.87;;
2035;SDS011;23642;42.658;23.350;2022-09-09T00:48:52;86.43;;;80.83;;
2035;SDS011;23642;42.658;23.350;2022-09-09T00:51:33;87.00;;;81.10;;
2035;SDS011;23642;42.658;23.350;2022-09-09T00:54:19;84.00;;;78.40;;
2035;SDS011;23642;42.658;23.350;2022-09-09T00:56:59;86.70;;;80.63;;
2035;SDS011;23642;42.658;23.350;2022-09-09T00:59:35;84.20;;;78.60;;
2035;SDS011;23642;42.658;23.350;2022-09-09T01:02:13;83.23;;;77.63;;
2035;SDS011;23642;42.658;23.350;2022-09-09T01:04:47;85.70;;;79.57;;
2035;SDS011;23642;42.658;23.350;2022-09-09T01:07:16;85.07;;;79.30;;
2035;SDS011;23642;42.658;23.350;2022-09-09T01:09:51;84.00;;;78.33;;
2035;SDS011;23642;42.658;23.350;2022-09-09T01:12:24;83.43;;;77.93;;
2035;SDS011;23642;42.658;23.350;2022-09-09T01:14:56;84.97;;;79.43;;
2035;SDS011;23642;42.658;23.350;2022-09-09T01:17:30;84.80;;;79.40;;
2035;SDS011;23642;42.658;23.350;2022-09-09T01:20:02;84.73;;;78.57;;
2035;SDS011;23642;42.658;23.350;2022-09-09T01:22:37;84.50;;;78.90;;
2035;SDS011;23642;42.658;23.350;2022-09-09T01:25:19;83.87;;;78.27;;
2035;SDS011;23642;42.658;23.350;2022-09-09T01:27:56;85.83;;;80.07;;
2035;SDS011;23642;42.658;23.350;2022-09-09T01:30:27;83.67;;;78.03;;
2035;SDS011;23642;42.658;23.350;2022-09-09T01:32:55;85.10;;;78.73;;
2035;SDS011;23642;42.658;23.350;2022-09-09T01:35:37;83.30;;;77.90;;
2035;SDS011;23642;42.658;23.350;2022-09-09T01:38:09;84.40;;;78.70;;
2035;SDS011;23642;42.658;23.350;2022-09-09T01:40:36;82.70;;;77.30;;
2035;SDS011;23642;42.658;23.350;2022-09-09T01:43:05;84.67;;;78.90;;
2035;SDS011;23642;42.658;23.350;2022-09-09T01:45:33;85.40;;;79.67;;
2035;SDS011;23642;42.658;23.350;2022-09-09T01:48:00;83.03;;;77.40;;
2035;SDS011;23642;42.658;23.350;2022-09-09T01:50:28;81.93;;;76.50;;
2035;SDS011;23642;42.658;23.350;2022-09-09T01:52:56;81.63;;;75.83;;
2035;SDS011;23642;42.658;23.350;2022-09-09T01:55:28;84.17;;;78.53;;
2035;SDS011;23642;42.658;23.350;2022-09-09T01:57:59;83.70;;;77.90;;
2035;SDS011;23642;42.658;23.350;2022-09-09T02:00:39;85.53;;;79.73;;
2035;SDS011;23642;42.658;23.350;2022-09-09T02:03:14;82.20;;;76.67;;
2035;SDS011;23642;42.658;23.350;2022-09-09T02:05:49;85.13;;;79.20;;
2035;SDS011;23642;42.658;23.350;2022-09-09T02:08:26;83.77;;;78.17;;
2035;SDS011;23642;42.658;23.350;2022-09-09T02:11:00;85.10;;;79.50;;
2035;SDS011;23642;42.658;23.350;2022-09-09T02:13:34;85.60;;;79.97;;
2035;SDS011;23642;42.658;23.350;2022-09-09T02:16:03;84.97;;;79.23;;
2035;SDS011;23642;42.658;23.350;2022-09-09T02:18:35;83.03;;;76.80;;
2035;SDS011;23642;42.658;23.350;2022-09-09T02:21:09;82.77;;;77.23;;
2035;SDS011;23642;42.658;23.350;2022-09-09T02:23:39;82.80;;;77.00;;
2035;SDS011;23642;42.658;23.350;2022-09-09T02:26:08;82.50;;;76.00;;
2035;SDS011;23642;42.658;23.350;2022-09-09T02:28:41;86.47;;;80.80;;
2035;SDS011;23642;42.658;23.350;2022-09-09T02:31:08;85.77;;;79.90;;
2035;SDS011;23642;42.658;23.350;2022-09-09T02:33:37;82.37;;;76.63;;
2035;SDS011;23642;42.658;23.350;2022-09-09T02:36:08;79.50;;;74.10;;
2035;SDS011;23642;42.658;23.350;2022-09-09T02:38:39;82.93;;;77.33;;
2035;SDS011;23642;42.658;23.350;2022-09-09T02:41:10;83.70;;;77.90;;
2035;SDS011;23642;42.658;23.350;2022-09-09T02:43:37;78.63;;;73.20;;
2035;SDS011;23642;42.658;23.350;2022-09-09T02:46:08;80.20;;;74.50;;
2035;SDS011;23642;42.658;23.350;2022-09-09T02:48:51;78.80;;;72.93;;
2035;SDS011;23642;42.658;23.350;2022-09-09T02:51:28;82.93;;;77.33;;
2035;SDS011;23642;42.658;23.350;2022-09-09T02:54:04;77.70;;;72.33;;
2035;SDS011;23642;42.658;23.350;2022-09-09T02:56:40;80.37;;;74.73;;
2035;SDS011;23642;42.658;23.350;2022-09-09T02:59:15;81.07;;;75.03;;
2035;SDS011;23642;42.658;23.350;2022-09-09T03:01:44;82.27;;;76.03;;
2035;SDS011;23642;42.658;23.350;2022-09-09T03:04:12;80.10;;;73.77;;
2035;SDS011;23642;42.658;23.350;2022-09-09T03:06:39;78.33;;;72.60;;
2035;SDS011;23642;42.658;23.350;2022-09-09T03:09:06;78.30;;;72.27;;
2035;SDS011;23642;42.658;23.350;2022-09-09T03:11:35;79.43;;;74.03;;
2035;SDS011;23642;42.658;23.350;2022-09-09T03:14:03;77.90;;;72.60;;
2035;SDS011;23642;42.658;23.350;2022-09-09T03:16:30;80.00;;;74.23;;
2035;SDS011;23642;42.658;23.350;2022-09-09T03:18:59;79.20;;;73.70;;
2035;SDS011;23642;42.658;23.350;2022-09-09T03:21:26;78.67;;;73.23;;
2035;SDS011;23642;42.658;23.350;2022-09-09T03:23:53;77.37;;;71.80;;
2035;SDS011;23642;42.658;23.350;2022-09-09T03:26:20;79.37;;;73.77;;
2035;SDS011;23642;42.658;23.350;2022-09-09T03:28:48;78.37;;;72.87;;
2035;SDS011;23642;42.658;23.350;2022-09-09T03:31:16;83.97;;;77.90;;
2035;SDS011;23642;42.658;23.350;2022-09-09T03:33:44;80.37;;;74.43;;
2035;SDS011;23642;42.658;23.350;2022-09-09T03:36:13;82.07;;;75.83;;
2035;SDS011;23642;42.658;23.350;2022-09-09T03:38:40;83.70;;;77.30;;
2035;SDS011;23642;42.658;23.350;2022-09-09T03:41:07;82.43;;;76.57;;
2035;SDS011;23642;42.658;23.350;2022-09-09T03:43:34;81.63;;;75.77;;
2035;SDS011;23642;42.658;23.350;2022-09-09T03:46:02;79.17;;;73.47;;
2035;SDS011;23642;42.658;23.350;2022-09-09T03:48:29;80.07;;;74.47;;
2035;SDS011;23642;42.658;23.350;2022-09-09T03:50:56;80.80;;;75.07;;
2035;SDS011;23642;42.658;23.350;2022-09-09T03:53:27;80.53;;;74.60;;
2035;SDS011;23642;42.658;23.350;2022-09-09T03:55:55;82.27;;;76.47;;
2035;SDS011;23642;42.658;23.350;2022-09-09T03:58:25;80.03;;;74.30;;
2035;SDS011;23642;42.658;23.350;2022-09-09T04:00:53;81.63;;;75.60;;
2035;SDS011;23642;42.658;23.350;2022-09-09T04:03:21;83.40;;;77.40;;
2035;SDS011;23642;42.658;23.350;2022-09-09T04:05:49;79.67;;;73.97;;
2035;SDS011;23642;42.658;23.350;2022-09-09T04:08:16;83.00;;;77.00;;
2035;SDS011;23642;42.658;23.350;2022-09-09T04:10:45;81.47;;;75.77;;
2035;SDS011;23642;42.658;23.350;2022-09-09T04:13:13;81.83;;;75.93;;
2035;SDS011;23642;42.658;23.350;2022-09-09T04:15:41;82.07;;;76.27;;
2035;SDS011;23642;42.658;23.350;2022-09-09T04:18:09;83.93;;;77.37;;
2035;SDS011;23642;42.658;23.350;2022-09-09T04:20:36;82.13;;;75.93;;
2035;SDS011;23642;42.658;23.350;2022-09-09T04:23:04;82.07;;;76.17;;
2035;SDS011;23642;42.658;23.350;2022-09-09T04:25:31;83.67;;;77.47;;
2035;SDS011;23642;42.658;23.350;2022-09-09T04:28:00;82.63;;;76.83;;
2035;SDS011;23642;42.658;23.350;2022-09-09T04:30:28;83.83;;;77.60;;
2035;SDS011;23642;42.658;23.350;2022-09-09T04:32:56;85.83;;;78.80;;
2035;SDS011;23642;42.658;23.350;2022-09-09T04:35:23;83.30;;;77.50;;
2035;SDS011;23642;42.658;23.350;2022-09-09T04:37:50;89.20;;;80.80;;
2035;SDS011;23642;42.658;23.350;2022-09-09T04:40:17;86.07;;;79.43;;
2035;SDS011;23642;42.658;23.350;2022-09-09T04:42:44;87.53;;;80.77;;
2035;SDS011;23642;42.658;23.350;2022-09-09T04:45:14;89.23;;;82.50;;
2035;SDS011;23642;42.658;23.350;2022-09-09T04:47:42;89.17;;;82.97;;
2035;SDS011;23642;42.658;23.350;2022-09-09T04:50:09;89.03;;;82.20;;
2035;SDS011;23642;42.658;23.350;2022-09-09T04:52:37;85.70;;;79.70;;
2035;SDS011;23642;42.658;23.350;2022-09-09T04:55:04;93.10;;;86.50;;
2035;SDS011;23642;42.658;23.350;2022-09-09T04:57:31;87.83;;;81.50;;
2035;SDS011;23642;42.658;23.350;2022-09-09T04:59:58;90.10;;;83.40;;
2035;SDS011;23642;42.658;23.350;2022-09-09T05:02:28;91.03;;;83.70;;
2035;SDS011;23642;42.658;23.350;2022-09-09T05:04:55;89.23;;;82.53;;
2035;SDS011;23642;42.658;23.350;2022-09-09T05:07:22;89.90;;;83.43;;
2035;SDS011;23642;42.658;23.350;2022-09-09T05:09:51;96.50;;;89.10;;
2035;SDS011;23642;42.658;23.350;2022-09-09T05:12:18;92.60;;;86.10;;
2035;SDS011;23642;42.658;23.350;2022-09-09T05:14:46;92.07;;;85.87;;
2035;SDS011;23642;42.658;23.350;2022-09-09T05:17:13;92.40;;;86.10;;
2035;SDS011;23642;42.658;23.350;2022-09-09T05:19:42;93.73;;;87.27;;
2035;SDS011;23642;42.658;23.350;2022-09-09T05:22:20;93.10;;;86.60;;
2035;SDS011;23642;42.658;23.350;2022-09-09T05:24:48;91.27;;;84.83;;
2035;SDS011;23642;42.658;23.350;2022-09-09T05:27:15;95.37;;;88.50;;
2035;SDS011;23642;42.658;23.350;2022-09-09T05:29:43;95.10;;;88.53;;
2035;SDS011;23642;42.658;23.350;2022-09-09T05:32:10;95.57;;;88.90;;
2035;SDS011;23642;42.658;23.350;2022-09-09T05:34:40;95.80;;;89.30;;
2035;SDS011;23642;42.658;23.350;2022-09-09T05:37:09;91.77;;;85.37;;
2035;SDS011;23642;42.658;23.350;2022-09-09T05:39:36;93.10;;;86.60;;
2035;SDS011;23642;42.658;23.350;2022-09-09T05:42:03;91.43;;;85.20;;
2035;SDS011;23642;42.658;23.350;2022-09-09T05:44:36;90.03;;;82.77;;
2035;SDS011;23642;42.658;23.350;2022-09-09T05:47:03;91.03;;;84.93;;
2035;SDS011;23642;42.658;23.350;2022-09-09T05:49:30;91.43;;;85.13;;
2035;SDS011;23642;42.658;23.350;2022-09-09T05:51:57;90.03;;;83.90;;
2035;SDS011;23642;42.658;23.350;2022-09-09T05:54:26;93.90;;;87.40;;
2035;SDS011;23642;42.658;23.350;2022-09-09T05:56:53;93.70;;;87.47;;
2035;SDS011;23642;42.658;23.350;2022-09-09T05:59:19;93.13;;;86.73;;
2035;SDS011;23642;42.658;23.350;2022-09-09T06:01:48;94.63;;;88.00;;
2035;SDS011;23642;42.658;23.350;2022-09-09T06:04:15;95.50;;;88.10;;
2035;SDS011;23642;42.658;23.350;2022-09-09T06:06:42;95.20;;;88.73;;
2035;SDS011;23642;42.658;23.350;2022-09-09T06:09:09;93.53;;;87.23;;
2035;SDS011;23642;42.658;23.350;2022-09-09T06:11:38;93.43;;;87.27;;
2035;SDS011;23642;42.658;23.350;2022-09-09T06:14:06;97.90;;;91.50;;
2035;SDS011;23642;42.658;23.350;2022-09-09T06:16:34;96.30;;;90.13;;
2035;SDS011;23642;42.658;23.350;2022-09-09T06:19:02;97.10;;;90.40;;
2035;SDS011;23642;42.658;23.350;2022-09-09T06:21:30;96.63;;;90.23;;
2035;SDS011;23642;42.658;23.350;2022-09-09T06:23:58;97.77;;;91.10;;
2035;SDS011;23642;42.658;23.350;2022-09-09T06:26:26;98.30;;;91.70;;
2035;SDS011;23642;42.658;23.350;2022-09-09T06:28:57;98.67;;;91.80;;
2035;SDS011;23642;42.658;23.350;2022-09-09T06:31:25;98.33;;;91.83;;
2035;SDS011;23642;42.658;23.350;2022-09-09T06:33:55;99.30;;;92.50;;
2035;SDS011;23642;42.658;23.350;2022-09-09T06:36:23;96.37;;;90.03;;
2035;SDS011;23642;42.658;23.350;2022-09-09T06:38:51;97.93;;;91.73;;
2035;SDS011;23642;42.658;23.350;2022-09-09T06:41:20;98.83;;;92.30;;
2035;SDS011;23642;42.658;23.350;2022-09-09T06:43:48;99.43;;;92.73;;
2035;SDS011;23642;42.658;23.350;2022-09-09T06:46:17;100.87;;;93.87;;
2035;SDS011;23642;42.658;23.350;2022-09-09T06:48:47;100.23;;;93.53;;
2035;SDS011;23642;42.658;23.350;2022-09-09T06:51:15;95.33;;;88.90;;
2035;SDS011;23642;42.658;23.350;2022-09-09T06:53:44;103.53;;;96.17;;
2035;SDS011;23642;42.658;23.350;2022-09-09T06:56:19;100.47;;;93.90;;
2035;SDS011;23642;42.658;23.350;2022-09-09T06:58:48;99.90;;;93.40;;
2035;SDS011;23642;42.658;23.350;2022-09-09T07:01:18;101.13;;;94.23;;
2035;SDS011;23642;42.658;23.350;2022-09-09T07:03:47;99.27;;;92.37;;
2035;SDS011;23642;42.658;23.350;2022-09-09T07:06:16;97.63;;;91.30;;
2035;SDS011;23642;42.658;23.350;2022-09-09T07:08:48;99.57;;;93.20;;
2035;SDS011;23642;42.658;23.350;2022-09-09T07:11:16;100.87;;;94.20;;
2035;SDS011;23642;42.658;23.350;2022-09-09T07:13:44;99.07;;;92.60;;
2035;SDS011;23642;42.658;23.350;2022-09-09T07:16:12;101.60;;;94.80;;
2035;SDS011;23642;42.658;23.350;2022-09-09T07:18:42;101.70;;;95.30;;
2035;SDS011;23642;42.658;23.350;2022-09-09T07:21:10;99.70;;;93.00;;
2035;SDS011;23642;42.658;23.350;2022-09-09T07:23:40;98.90;;;92.23;;
2035;SDS011;23642;42.658;23.350;2022-09-09T07:26:08;98.00;;;91.40;;
2035;SDS011;23642;42.658;23.350;2022-09-09T07:28:36;99.20;;;92.50;;
2035;SDS011;23642;42.658;23.350;2022-09-09T07:31:12;96.80;;;90.40;;
2035;SDS011;23642;42.658;23.350;2022-09-09T07:33:43;98.23;;;91.53;;
2035;SDS011;23642;42.658;23.350;2022-09-09T07:36:13;98.63;;;92.37;;
2035;SDS011;23642;42.658;23.350;2022-09-09T07:38:43;96.67;;;90.57;;
2035;SDS011;23642;42.658;23.350;2022-09-09T07:41:12;96.97;;;90.87;;
2035;SDS011;23642;42.658;23.350;2022-09-09T07:43:42;95.70;;;89.23;;
2035;SDS011;23642;42.658;23.350;2022-09-09T07:46:10;96.90;;;90.07;;
2035;SDS011;23642;42.658;23.350;2022-09-09T07:48:42;96.80;;;90.40;;
2035;SDS011;23642;42.658;23.350;2022-09-09T07:51:17;94.87;;;88.37;;
2035;SDS011;23642;42.658;23.350;2022-09-09T07:53:46;95.80;;;89.60;;
2035;SDS011;23642;42.658;23.350;2022-09-09T07:56:15;93.93;;;87.50;;
2035;SDS011;23642;42.658;23.350;2022-09-09T07:58:44;97.20;;;90.70;;
2035;SDS011;23642;42.658;23.350;2022-09-09T08:01:13;98.07;;;91.83;;
2035;SDS011;23642;42.658;23.350;2022-09-09T08:03:53;98.57;;;92.47;;
2035;SDS011;23642;42.658;23.350;2022-09-09T08:06:38;103.70;;;97.03;;
2035;SDS011;23642;42.658;23.350;2022-09-09T08:09:19;97.47;;;91.23;;
2035;SDS011;23642;42.658;23.350;2022-09-09T08:11:53;97.00;;;91.00;;
2035;SDS011;23642;42.658;23.350;2022-09-09T08:14:26;98.10;;;91.63;;
2035;SDS011;23642;42.658;23.350;2022-09-09T08:16:53;98.40;;;91.87;;
2035;SDS011;23642;42.658;23.350;2022-09-09T08:19:24;97.53;;;91.20;;
2035;SDS011;23642;42.658;23.350;2022-09-09T08:21:51;96.27;;;90.27;;
2035;SDS011;23642;42.658;23.350;2022-09-09T08:24:24;95.20;;;89.20;;
2035;SDS011;23642;42.658;23.350;2022-09-09T08:26:51;96.90;;;90.80;;
2035;SDS011;23642;42.658;23.350;2022-09-09T08:29:18;96.17;;;89.97;;
2035;SDS011;23642;42.658;23.350;2022-09-09T08:31:58;96.97;;;90.93;;
2035;SDS011;23642;42.658;23.350;2022-09-09T08:34:48;96.43;;;90.30;;
2035;SDS011;23642;42.658;23.350;2022-09-09T08:37:16;99.07;;;92.63;;
2035;SDS011;23642;42.658;23.350;2022-09-09T08:39:44;97.30;;;91.20;;
2035;SDS011;23642;42.658;23.350;2022-09-09T08:42:17;94.50;;;88.60;;
2035;SDS011;23642;42.658;23.350;2022-09-09T08:47:55;94.60;;;88.37;;
2035;SDS011;23642;42.658;23.350;2022-09-09T08:50:39;93.93;;;88.13;;
2035;SDS011;23642;42.658;23.350;2022-09-09T08:53:09;93.63;;;87.93;;
2035;SDS011;23642;42.658;23.350;2022-09-09T08:55:43;96.10;;;89.90;;
2035;SDS011;23642;42.658;23.350;2022-09-09T08:58:18;93.77;;;87.57;;
2035;SDS011;23642;42.658;23.350;2022-09-09T09:00:56;95.87;;;89.30;;
2035;SDS011;23642;42.658;23.350;2022-09-09T09:03:35;96.23;;;90.07;;
2035;SDS011;23642;42.658;23.350;2022-09-09T09:06:16;94.67;;;88.97;;
2035;SDS011;23642;42.658;23.350;2022-09-09T09:09:02;92.27;;;86.60;;
2035;SDS011;23642;42.658;23.350;2022-09-09T09:11:38;95.83;;;89.73;;
2035;SDS011;23642;42.658;23.350;2022-09-09T09:14:09;93.23;;;87.20;;
2035;SDS011;23642;42.658;23.350;2022-09-09T09:16:45;92.93;;;87.20;;
2035;SDS011;23642;42.658;23.350;2022-09-09T09:19:17;93.83;;;88.00;;
2035;SDS011;23642;42.658;23.350;2022-09-09T09:21:50;96.30;;;90.40;;
2035;SDS011;23642;42.658;23.350;2022-09-09T09:24:25;95.30;;;89.20;;
2035;SDS011;23642;42.658;23.350;2022-09-09T09:27:00;95.10;;;88.73;;
2035;SDS011;23642;42.658;23.350;2022-09-09T09:29:37;95.27;;;89.17;;
2035;SDS011;23642;42.658;23.350;2022-09-09T09:32:07;94.97;;;88.77;;
2035;SDS011;23642;42.658;23.350;2022-09-09T09:34:39;93.87;;;88.07;;
2035;SDS011;23642;42.658;23.350;2022-09-09T09:37:11;95.47;;;89.27;;
2035;SDS011;23642;42.658;23.350;2022-09-09T09:39:44;96.63;;;90.73;;
2035;SDS011;23642;42.658;23.350;2022-09-09T09:42:12;96.83;;;90.60;;
2035;SDS011;23642;42.658;23.350;2022-09-09T09:44:40;97.87;;;91.73;;
2035;SDS011;23642;42.658;23.350;2022-09-09T09:47:08;98.13;;;92.10;;
2035;SDS011;23642;42.658;23.350;2022-09-09T09:49:38;95.90;;;89.83;;
2035;SDS011;23642;42.658;23.350;2022-09-09T09:52:06;96.47;;;90.37;;
2035;SDS011;23642;42.658;23.350;2022-09-09T09:54:44;93.73;;;88.03;;
2035;SDS011;23642;42.658;23.350;2022-09-09T09:57:11;97.07;;;90.83;;
2035;SDS011;23642;42.658;23.350;2022-09-09T09:59:40;99.37;;;92.33;;
2035;SDS011;23642;42.658;23.350;2022-09-09T10:02:16;96.50;;;90.70;;
2035;SDS011;23642;42.658;23.350;2022-09-09T10:04:45;92.20;;;86.60;;
2035;SDS011;23642;42.658;23.350;2022-09-09T10:07:17;94.53;;;88.93;;
2035;SDS011;23642;42.658;23.350;2022-09-09T10:09:45;97.23;;;90.90;;
2035;SDS011;23642;42.658;23.350;2022-09-09T10:12:20;98.43;;;92.20;;
2035;SDS011;23642;42.658;23.350;2022-09-09T10:15:15;96.00;;;90.20;;
2035;SDS011;23642;42.658;23.350;2022-09-09T10:17:59;98.20;;;92.20;;
2035;SDS011;23642;42.658;23.350;2022-09-09T10:20:36;97.07;;;90.67;;
2035;SDS011;23642;42.658;23.350;2022-09-09T10:23:18;96.37;;;90.47;;
2035;SDS011;23642;42.658;23.350;2022-09-09T10:26:04;96.10;;;90.13;;
2035;SDS011;23642;42.658;23.350;2022-09-09T10:31:38;97.53;;;91.53;;
2035;SDS011;23642;42.658;23.350;2022-09-09T10:34:22;96.33;;;89.97;;
2035;SDS011;23642;42.658;23.350;2022-09-09T10:37:08;94.27;;;87.87;;
2035;SDS011;23642;42.658;23.350;2022-09-09T10:39:49;93.77;;;87.57;;
2035;SDS011;23642;42.658;23.350;2022-09-09T10:42:23;91.37;;;85.63;;
2035;SDS011;23642;42.658;23.350;2022-09-09T10:45:00;90.90;;;85.20;;
2035;SDS011;23642;42.658;23.350;2022-09-09T10:47:46;94.23;;;87.50;;
2035;SDS011;23642;42.658;23.350;2022-09-09T10:50:27;94.17;;;87.97;;
2035;SDS011;23642;42.658;23.350;2022-09-09T10:53:14;93.30;;;87.27;;
2035;SDS011;23642;42.658;23.350;2022-09-09T10:55:52;98.93;;;92.13;;
2035;SDS011;23642;42.658;23.350;2022-09-09T10:58:28;93.20;;;87.30;;
2035;SDS011;23642;42.658;23.350;2022-09-09T11:01:10;94.37;;;88.03;;
2035;SDS011;23642;42.658;23.350;2022-09-09T11:03:42;93.43;;;86.83;;
2035;SDS011;23642;42.658;23.350;2022-09-09T11:06:16;94.13;;;88.30;;
2035;SDS011;23642;42.658;23.350;2022-09-09T11:08:45;90.03;;;84.23;;
2035;SDS011;23642;42.658;23.350;2022-09-09T11:11:17;94.90;;;88.90;;
2035;SDS011;23642;42.658;23.350;2022-09-09T11:13:53;93.60;;;87.50;;
2035;SDS011;23642;42.658;23.350;2022-09-09T11:16:34;93.87;;;87.53;;
2035;SDS011;23642;42.658;23.350;2022-09-09T11:19:10;90.77;;;84.93;;
2035;SDS011;23642;42.658;23.350;2022-09-09T11:21:43;90.70;;;85.03;;
2035;SDS011;23642;42.658;23.350;2022-09-09T11:24:14;92.83;;;86.77;;
2035;SDS011;23642;42.658;23.350;2022-09-09T11:26:53;94.33;;;88.47;;
2035;SDS011;23642;42.658;23.350;2022-09-09T11:29:45;93.20;;;87.30;;
2035;SDS011;23642;42.658;23.350;2022-09-09T11:32:48;93.73;;;87.73;;
2035;SDS011;23642;42.658;23.350;2022-09-09T11:35:42;91.70;;;85.90;;
2035;SDS011;23642;42.658;23.350;2022-09-09T11:38:16;93.57;;;87.50;;
2035;SDS011;23642;42.658;23.350;2022-09-09T11:40:47;96.03;;;89.67;;
2035;SDS011;23642;42.658;23.350;2022-09-09T11:43:25;93.20;;;86.67;;
2035;SDS011;23642;42.658;23.350;2022-09-09T11:45:57;94.53;;;88.47;;
2035;SDS011;23642;42.658;23.350;2022-09-09T11:48:28;98.50;;;92.33;;
2035;SDS011;23642;42.658;23.350;2022-09-09T11:50:59;102.60;;;95.53;;
2035;SDS011;23642;42.658;23.350;2022-09-09T11:53:30;100.60;;;94.53;;
2035;SDS011;23642;42.658;23.350;2022-09-09T11:56:11;101.77;;;95.40;;
2035;SDS011;23642;42.658;23.350;2022-09-09T11:58:53;100.57;;;94.27;;
2035;SDS011;23642;42.658;23.350;2022-09-09T12:01:27;96.53;;;90.33;;
2035;SDS011;23642;42.658;23.350;2022-09-09T12:04:10;100.20;;;93.90;;
2035;SDS011;23642;42.658;23.350;2022-09-09T12:06:56;100.70;;;94.20;;
2035;SDS011;23642;42.658;23.350;2022-09-09T12:09:28;101.90;;;95.70;;
2035;SDS011;23642;42.658;23.350;2022-09-09T12:12:07;99.17;;;93.27;;
2035;SDS011;23642;42.658;23.350;2022-09-09T12:14:56;101.97;;;95.87;;
2035;SDS011;23642;42.658;23.350;2022-09-09T12:17:26;101.27;;;95.03;;
2035;SDS011;23642;42.658;23.350;2022-09-09T12:20:02;98.30;;;92.40;;
2035;SDS011;23642;42.658;23.350;2022-09-09T12:22:39;98.00;;;91.93;;
2035;SDS011;23642;42.658;23.350;2022-09-09T12:25:16;93.20;;;87.13;;
2035;SDS011;23642;42.658;23.350;2022-09-09T12:27:56;97.50;;;91.30;;
2035;SDS011;23642;42.658;23.350;2022-09-09T12:30:31;102.97;;;96.47;;
2035;SDS011;23642;42.658;23.350;2022-09-09T12:33:08;102.83;;;96.63;;
2035;SDS011;23642;42.658;23.350;2022-09-09T12:35:38;106.40;;;99.90;;
2035;SDS011;23642;42.658;23.350;2022-09-09T12:38:06;102.97;;;96.47;;
2035;SDS011;23642;42.658;23.350;2022-09-09T12:40:40;104.97;;;98.50;;
2035;SDS011;23642;42.658;23.350;2022-09-09T12:43:17;97.60;;;91.40;;
2035;SDS011;23642;42.658;23.350;2022-09-09T12:45:47;105.27;;;98.80;;
2035;SDS011;23642;42.658;23.350;2022-09-09T12:48:21;109.10;;;101.90;;
2035;SDS011;23642;42.658;23.350;2022-09-09T12:50:56;104.40;;;98.10;;
2035;SDS011;23642;42.658;23.350;2022-09-09T12:53:25;107.83;;;101.17;;
2035;SDS011;23642;42.658;23.350;2022-09-09T12:55:56;98.37;;;91.97;;
2035;SDS011;23642;42.658;23.350;2022-09-09T12:58:25;98.40;;;92.10;;
2035;SDS011;23642;42.658;23.350;2022-09-09T13:00:56;98.67;;;92.37;;
2035;SDS011;23642;42.658;23.350;2022-09-09T13:03:23;103.33;;;96.73;;
2035;SDS011;23642;42.658;23.350;2022-09-09T13:05:51;101.40;;;95.40;;
2035;SDS011;23642;42.658;23.350;2022-09-09T13:08:19;107.27;;;100.67;;
2035;SDS011;23642;42.658;23.350;2022-09-09T13:10:47;103.90;;;97.33;;
2035;SDS011;23642;42.658;23.350;2022-09-09T13:13:19;95.80;;;89.67;;
2035;SDS011;23642;42.658;23.350;2022-09-09T13:15:56;97.60;;;91.23;;
2035;SDS011;23642;42.658;23.350;2022-09-09T13:18:26;95.00;;;88.70;;
2035;SDS011;23642;42.658;23.350;2022-09-09T13:20:54;101.33;;;95.10;;
2035;SDS011;23642;42.658;23.350;2022-09-09T13:23:25;105.30;;;98.70;;
2035;SDS011;23642;42.658;23.350;2022-09-09T13:25:55;104.40;;;98.10;;
2035;SDS011;23642;42.658;23.350;2022-09-09T13:28:24;101.60;;;95.30;;
2035;SDS011;23642;42.658;23.350;2022-09-09T13:30:57;103.33;;;97.13;;
2035;SDS011;23642;42.658;23.350;2022-09-09T13:33:29;94.87;;;88.77;;
2035;SDS011;23642;42.658;23.350;2022-09-09T13:35:58;95.60;;;88.60;;
2035;SDS011;23642;42.658;23.350;2022-09-09T13:38:29;95.13;;;88.83;;
2035;SDS011;23642;42.658;23.350;2022-09-09T13:40:59;106.77;;;99.70;;
2035;SDS011;23642;42.658;23.350;2022-09-09T13:43:29;106.80;;;100.30;;
2035;SDS011;23642;42.658;23.350;2022-09-09T13:46:00;104.10;;;97.70;;
2035;SDS011;23642;42.658;23.350;2022-09-09T13:48:30;96.63;;;90.30;;
2035;SDS011;23642;42.658;23.350;2022-09-09T13:50:58;95.20;;;89.30;;
2035;SDS011;23642;42.658;23.350;2022-09-09T13:53:26;94.97;;;88.97;;
2035;SDS011;23642;42.658;23.350;2022-09-09T13:55:55;106.60;;;99.43;;
2035;SDS011;23642;42.658;23.350;2022-09-09T13:58:23;104.73;;;98.20;;
2035;SDS011;23642;42.658;23.350;2022-09-09T14:00:50;104.40;;;97.70;;
2035;SDS011;23642;42.658;23.350;2022-09-09T14:03:19;98.00;;;92.00;;
2035;SDS011;23642;42.658;23.350;2022-09-09T14:05:47;94.63;;;88.50;;
2035;SDS011;23642;42.658;23.350;2022-09-09T14:08:23;105.23;;;98.83;;
2035;SDS011;23642;42.658;23.350;2022-09-09T14:10:51;95.50;;;89.60;;
2035;SDS011;23642;42.658;23.350;2022-09-09T14:13:22;96.17;;;90.00;;
2035;SDS011;23642;42.658;23.350;2022-09-09T14:15:49;97.43;;;91.33;;
2035;SDS011;23642;42.658;23.350;2022-09-09T14:18:20;96.23;;;90.00;;
2035;SDS011;23642;42.658;23.350;2022-09-09T14:20:48;95.87;;;89.33;;
2035;SDS011;23642;42.658;23.350;2022-09-09T14:23:16;97.50;;;90.90;;
2035;SDS011;23642;42.658;23.350;2022-09-09T14:25:44;94.77;;;88.17;;
2035;SDS011;23642;42.658;23.350;2022-09-09T14:28:11;95.13;;;88.73;;
2035;SDS011;23642;42.658;23.350;2022-09-09T14:30:40;95.70;;;89.50;;
2035;SDS011;23642;42.658;23.350;2022-09-09T14:33:10;97.27;;;91.00;;
2035;SDS011;23642;42.658;23.350;2022-09-09T14:35:40;95.40;;;89.30;;
2035;SDS011;23642;42.658;23.350;2022-09-09T14:38:07;95.83;;;89.87;;
2035;SDS011;23642;42.658;23.350;2022-09-09T14:40:35;96.33;;;90.23;;
2035;SDS011;23642;42.658;23.350;2022-09-09T14:43:03;96.10;;;89.60;;
2035;SDS011;23642;42.658;23.350;2022-09-09T14:45:30;98.80;;;92.37;;
2035;SDS011;23642;42.658;23.350;2022-09-09T14:47:58;97.60;;;91.30;;
2035;SDS011;23642;42.658;23.350;2022-09-09T14:50:26;94.57;;;88.47;;
2035;SDS011;23642;42.658;23.350;2022-09-09T14:52:55;94.83;;;88.90;;
2035;SDS011;23642;42.658;23.350;2022-09-09T14:55:22;97.50;;;90.47;;